Time;durP1;ratioP1;P1;durP2;ratioP2;P2;SDS_P1;SDS_P2;PMS_P1;PMS_P2;Temp;Humidity;BMP_temperature;BMP_pressure;BME280_temperature;BME280_humidity;BME280_pressure;Samples;Min_cycle;Max_cycle;Signal;HPM_P1;HPM_P2
2023/10/10 00:01:43;;;;;;;8.23;4.90;;;;;;;14.02;100.00;99698.19;4896443;29;20199;-87
2023/10/10 00:04:12;;;;;;;8.03;4.47;;;;;;;14.04;100.00;99696.03;4852072;29;20203;-87
2023/10/10 00:09:48;;;;;;;9.67;4.63;;;;;;;14.00;100.00;99702.97;4963459;23;20268;-86
2023/10/10 00:12:19;;;;;;;9.07;4.70;;;;;;;14.01;100.00;99704.63;4909003;29;20229;-87
2023/10/10 00:24:04;;;;;;;11.23;5.57;;;;;;;13.96;100.00;99703.69;4970499;23;20234;-87
2023/10/10 00:26:34;;;;;;;11.47;5.23;;;;;;;13.94;100.00;99706.66;4913193;29;20200;-85
2023/10/10 00:29:06;;;;;;;7.40;4.37;;;;;;;13.91;100.00;99698.19;4920188;29;20734;-86
2023/10/10 00:31:33;;;;;;;9.33;4.77;;;;;;;13.87;100.00;99695.19;4904872;29;20205;-87
2023/10/10 00:34:03;;;;;;;10.67;4.80;;;;;;;13.86;100.00;99700.78;4896386;29;20229;-87
2023/10/10 00:36:33;;;;;;;9.80;4.77;;;;;;;13.86;100.00;99700.78;4888086;29;20216;-87
2023/10/10 00:42:05;;;;;;;9.03;5.20;;;;;;;13.82;100.00;99710.41;4963522;23;20232;-85
2023/10/10 00:44:39;;;;;;;8.13;4.60;;;;;;;13.75;100.00;99709.75;4938411;29;20681;-86
2023/10/10 00:47:13;;;;;;;9.10;4.67;;;;;;;13.69;100.00;99706.13;4903999;29;20700;-86
2023/10/10 00:58:46;;;;;;;12.33;4.57;;;;;;;13.32;100.00;99702.09;5119907;23;20237;-85
2023/10/10 01:01:19;;;;;;;9.00;4.77;;;;;;;13.23;100.00;99694.38;4939482;29;20177;-85
2023/10/10 01:03:53;;;;;;;9.83;4.23;;;;;;;13.15;100.00;99697.44;4925840;29;20601;-85
2023/10/10 05:25:52;;;;;;;11.83;5.30;;;;;;;13.94;100.00;99720.13;4987516;23;20308;-86
2023/10/10 05:28:29;;;;;;;8.87;4.60;;;;;;;13.99;100.00;99725.59;4919541;29;20202;-87
2023/10/10 05:34:02;;;;;;;8.23;4.37;;;;;;;14.15;100.00;99734.78;5117318;23;20248;-87
2023/10/10 05:36:31;;;;;;;8.43;4.57;;;;;;;14.23;100.00;99742.47;4971072;28;20213;-88
2023/10/10 05:39:02;;;;;;;10.83;5.00;;;;;;;14.29;100.00;99740.69;4912560;29;20204;-87
2023/10/10 05:41:32;;;;;;;12.07;5.50;;;;;;;14.32;100.00;99742.94;4922170;29;20197;-88
2023/10/10 05:44:02;;;;;;;10.13;5.13;;;;;;;14.36;100.00;99744.94;4906592;28;20213;-88
2023/10/10 05:46:32;;;;;;;10.60;5.47;;;;;;;14.43;100.00;99750.16;4947844;28;20572;-88
2023/10/10 05:49:02;;;;;;;11.53;5.73;;;;;;;14.48;100.00;99751.06;4943314;29;20260;-88
2023/10/10 05:51:35;;;;;;;12.73;5.60;;;;;;;14.53;100.00;99744.97;4942363;29;20268;-88
2023/10/10 05:54:03;;;;;;;12.10;6.20;;;;;;;14.64;100.00;99757.56;4912392;28;20235;-89
2023/10/10 05:56:34;;;;;;;10.63;4.90;;;;;;;14.75;100.00;99769.34;4923586;28;20279;-89
2023/10/10 05:59:04;;;;;;;10.77;5.30;;;;;;;14.86;100.00;99765.75;4930031;28;20303;-89
2023/10/10 06:01:35;;;;;;;10.60;4.70;;;;;;;14.98;100.00;99783.50;4940041;29;20212;-89
2023/10/10 06:04:03;;;;;;;10.77;5.00;;;;;;;15.13;100.00;99779.41;4925719;29;20354;-87
2023/10/10 06:06:37;;;;;;;10.37;4.83;;;;;;;15.30;100.00;99778.34;4910138;29;20208;-88
2023/10/10 06:09:18;;;;;;;9.13;4.80;;;;;;;15.48;100.00;99781.88;4897319;29;20328;-88
2023/10/10 06:11:46;;;;;;;8.83;4.80;;;;;;;15.69;100.00;99779.22;4909987;29;20210;-88
2023/10/10 06:14:14;;;;;;;11.03;4.80;;;;;;;15.95;100.00;99777.69;4902401;29;20229;-88
2023/10/10 06:16:44;;;;;;;10.27;5.37;;;;;;;16.05;100.00;99775.09;4910370;29;20198;-88
2023/10/10 06:19:20;;;;;;;9.80;5.00;;;;;;;16.06;100.00;99776.72;4938854;29;20228;-88
2023/10/10 06:21:55;;;;;;;10.47;4.43;;;;;;;15.99;100.00;99772.59;4926680;29;20202;-88
2023/10/10 06:24:27;;;;;;;10.93;5.43;;;;;;;15.90;100.00;99784.91;4922129;29;20213;-88
2023/10/10 06:27:00;;;;;;;12.97;5.57;;;;;;;15.85;100.00;99781.09;4906402;29;20214;-88
2023/10/10 06:29:34;;;;;;;10.30;4.70;;;;;;;15.77;100.00;99789.59;4899471;29;20198;-88
2023/10/10 06:32:10;;;;;;;10.50;5.50;;;;;;;15.74;100.00;99800.09;4916226;29;20211;-88
2023/10/10 06:34:39;;;;;;;8.93;5.50;;;;;;;15.75;100.00;99802.56;4911210;29;20208;-88
2023/10/10 06:37:08;;;;;;;14.00;5.60;;;;;;;15.75;100.00;99813.34;4955960;29;20193;-88
2023/10/10 06:39:57;;;;;;;10.10;4.87;;;;;;;15.76;100.00;99806.88;4957181;29;20197;-88
2023/10/10 06:42:28;;;;;;;8.87;5.03;;;;;;;15.84;100.00;99813.75;4940644;29;20216;-87
2023/10/10 06:45:07;;;;;;;10.53;6.10;;;;;;;15.99;100.00;99822.06;4933231;29;20228;-88
2023/10/10 06:47:39;;;;;;;8.50;5.13;;;;;;;16.05;100.00;99810.22;4906378;29;20232;-88
2023/10/10 06:50:11;;;;;;;11.23;5.20;;;;;;;16.04;100.00;99815.91;4906309;29;20213;-88
2023/10/10 06:52:53;;;;;;;10.30;5.03;;;;;;;16.01;100.00;99830.72;4908611;29;20265;-88
2023/10/10 06:55:22;;;;;;;10.27;4.73;;;;;;;15.90;100.00;99834.38;4920968;29;20297;-86
2023/10/10 06:58:01;;;;;;;8.53;4.70;;;;;;;15.91;100.00;99835.19;4905335;29;20215;-88
2023/10/10 07:00:45;;;;;;;7.13;3.80;;;;;;;15.82;100.00;99849.09;4910671;29;20206;-87
2023/10/10 07:03:19;;;;;;;8.00;4.20;;;;;;;15.65;100.00;99842.91;4920695;29;20201;-88
2023/10/10 07:05:50;;;;;;;7.17;4.17;;;;;;;15.57;100.00;99845.22;4898804;29;20216;-88
2023/10/10 07:08:25;;;;;;;7.37;3.73;;;;;;;15.41;100.00;99860.31;4910147;29;20226;-88
2023/10/10 07:10:57;;;;;;;8.80;3.90;;;;;;;15.37;100.00;99862.69;4906309;29;20692;-88
2023/10/10 07:13:29;;;;;;;9.07;4.20;;;;;;;15.35;100.00;99864.03;4922997;29;20261;-88
2023/10/10 07:15:59;;;;;;;8.77;4.00;;;;;;;15.37;100.00;99861.88;4905620;29;20201;-88
2023/10/10 07:18:30;;;;;;;6.77;3.77;;;;;;;15.42;100.00;99854.69;4921252;29;20201;-88
2023/10/10 07:21:06;;;;;;;6.50;3.50;;;;;;;15.48;100.00;99857.47;4890130;29;20202;-89
2023/10/10 07:23:38;;;;;;;8.43;3.83;;;;;;;15.43;100.00;99877.94;4925116;29;20899;-88
2023/10/10 07:26:25;;;;;;;7.33;3.50;;;;;;;15.42;100.00;99876.28;4912289;29;20268;-88
2023/10/10 07:28:56;;;;;;;6.00;4.00;;;;;;;15.42;100.00;99875.47;4910942;29;20296;-87
2023/10/10 07:31:25;;;;;;;5.80;3.60;;;;;;;15.40;100.00;99864.91;4897406;29;20232;-88
2023/10/10 07:34:03;;;;;;;8.80;4.57;;;;;;;15.39;100.00;99868.69;4891553;29;20329;-89
2023/10/10 07:36:36;;;;;;;8.70;4.00;;;;;;;15.31;100.00;99865.53;4903045;29;20596;-88
2023/10/10 07:41:52;;;;;;;7.27;3.70;;;;;;;15.29;100.00;99875.78;4895610;29;20217;-88
2023/10/10 07:44:30;;;;;;;8.13;4.30;;;;;;;15.35;100.00;99870.22;4901810;29;20209;-88
2023/10/10 07:49:50;;;;;;;7.10;3.87;;;;;;;15.47;100.00;99867.44;4883469;29;20206;-88
2023/10/10 07:52:21;;;;;;;6.63;3.77;;;;;;;15.61;100.00;99870.66;4886684;29;20241;-88
2023/10/10 07:54:51;;;;;;;7.97;3.83;;;;;;;15.72;100.00;99858.97;4901145;29;20333;-88
2023/10/10 07:57:26;;;;;;;8.47;4.07;;;;;;;15.91;100.00;99862.22;4885472;29;20226;-88
2023/10/10 07:59:57;;;;;;;6.43;4.17;;;;;;;16.00;100.00;99858.84;4871571;29;20209;-88
2023/10/10 08:02:31;;;;;;;9.27;4.10;;;;;;;16.41;100.00;99854.75;4900262;29;20199;-89
2023/10/10 08:05:11;;;;;;;5.13;3.90;;;;;;;16.70;100.00;99847.28;4886576;29;20205;-88
2023/10/10 08:07:45;;;;;;;6.43;3.77;;;;;;;16.75;100.00;99850.03;4892065;29;20231;-88
2023/10/10 08:10:29;;;;;;;8.30;4.90;;;;;;;16.69;100.00;99845.66;4897900;29;20203;-89
2023/10/10 08:12:57;;;;;;;9.27;4.70;;;;;;;16.73;100.00;99850.28;4883446;29;20313;-88
2023/10/10 08:15:25;;;;;;;9.83;5.17;;;;;;;16.76;100.00;99865.19;4920368;29;20202;-89
2023/10/10 08:17:58;;;;;;;7.93;4.77;;;;;;;16.66;100.00;99860.47;4904655;29;20201;-88
2023/10/10 08:20:35;;;;;;;10.73;4.87;;;;;;;16.56;100.00;99865.75;4901472;29;20216;-88
2023/10/10 08:23:10;;;;;;;9.93;5.53;;;;;;;16.55;100.00;99864.13;4887891;29;20300;-88
2023/10/10 08:25:40;;;;;;;11.63;5.57;;;;;;;16.59;100.00;99859.88;4875906;29;20238;-88
2023/10/10 08:28:13;;;;;;;12.97;5.60;;;;;;;16.61;100.00;99867.75;4901581;29;20289;-88
2023/10/10 08:30:44;;;;;;;8.90;5.40;;;;;;;16.69;100.00;99872.69;4895563;29;20201;-88
2023/10/10 08:33:12;;;;;;;9.10;4.90;;;;;;;16.75;100.00;99868.97;4902668;29;20245;-88
2023/10/10 08:35:47;;;;;;;10.90;5.17;;;;;;;16.87;100.00;99876.94;4928617;29;20224;-88
2023/10/10 08:38:19;;;;;;;10.20;5.17;;;;;;;16.95;100.00;99873.78;4905165;29;20683;-88
2023/10/10 08:40:57;;;;;;;8.17;5.97;;;;;;;17.07;100.00;99869.88;4903898;29;20215;-89
2023/10/10 08:43:32;;;;;;;10.03;4.80;;;;;;;17.36;100.00;99880.38;4924457;29;20216;-89
2023/10/10 08:46:04;;;;;;;8.93;5.13;;;;;;;17.60;100.00;99879.00;4907612;29;20224;-88
2023/10/10 08:48:44;;;;;;;9.87;5.33;;;;;;;17.86;100.00;99880.84;4897274;29;20301;-89
2023/10/10 08:51:11;;;;;;;11.37;5.23;;;;;;;18.00;100.00;99889.31;4913899;29;20201;-88
2023/10/10 08:53:40;;;;;;;12.03;5.70;;;;;;;18.04;100.00;99879.59;4938438;29;20225;-88
2023/10/10 08:56:14;;;;;;;10.30;5.47;;;;;;;18.02;100.00;99879.00;4955763;29;20201;-87
2023/10/10 08:58:42;;;;;;;9.77;5.17;;;;;;;18.03;100.00;99895.03;4938882;29;20284;-88
2023/10/10 09:01:11;;;;;;;8.73;5.70;;;;;;;18.00;100.00;99902.88;4906021;29;20225;-88
2023/10/10 09:03:45;;;;;;;10.30;5.27;;;;;;;17.96;100.00;99904.47;4902995;29;20237;-88
2023/10/10 09:06:19;;;;;;;11.03;5.60;;;;;;;17.88;100.00;99899.53;4920076;29;20288;-88
2023/10/10 09:08:51;;;;;;;9.63;5.67;;;;;;;17.86;100.00;99901.69;4936011;29;20230;-88
2023/10/10 09:11:23;;;;;;;9.97;5.80;;;;;;;17.90;100.00;99905.50;4904954;29;20214;-88
2023/10/10 09:13:51;;;;;;;8.83;5.30;;;;;;;17.99;100.00;99914.78;4919528;29;20237;-88
2023/10/10 09:16:44;;;;;;;8.07;4.83;;;;;;;18.07;100.00;99900.75;4919719;29;20236;-88
2023/10/10 09:19:19;;;;;;;9.57;5.60;;;;;;;18.16;100.00;99915.44;4904564;29;20821;-88
2023/10/10 09:21:55;;;;;;;11.33;6.17;;;;;;;18.18;100.00;99918.72;4937873;29;20189;-88
2023/10/10 09:24:33;;;;;;;12.80;6.73;;;;;;;18.35;100.00;99918.53;4937771;29;20754;-87
2023/10/10 09:27:22;;;;;;;14.30;7.77;;;;;;;18.54;100.00;99925.16;4900575;29;20211;-88
2023/10/10 09:29:56;;;;;;;10.30;6.67;;;;;;;18.90;100.00;99915.25;4915624;29;20227;-88
2023/10/10 09:32:42;;;;;;;10.73;6.90;;;;;;;19.35;100.00;99907.22;4893185;29;20239;-88
2023/10/10 09:35:20;;;;;;;12.37;6.97;;;;;;;19.69;100.00;99912.94;4913607;29;20231;-87
2023/10/10 09:37:49;;;;;;;13.40;7.60;;;;;;;19.89;100.00;99906.69;4897411;29;20589;-88
2023/10/10 09:40:21;;;;;;;12.53;7.90;;;;;;;19.94;100.00;99908.56;4927448;29;20206;-88
2023/10/10 09:45:52;;;;;;;13.33;7.33;;;;;;;19.86;100.00;99901.81;4897694;29;20213;-88
2023/10/10 09:48:33;;;;;;;13.53;6.40;;;;;;;19.94;100.00;99898.53;4883469;29;20326;-87
2023/10/10 09:51:15;;;;;;;10.13;5.63;;;;;;;20.11;100.00;99906.41;4889669;29;20214;-88
2023/10/10 09:53:46;;;;;;;11.77;6.77;;;;;;;20.32;100.00;99915.34;4906145;29;20326;-87
2023/10/10 09:56:15;;;;;;;11.97;6.90;;;;;;;20.43;100.00;99915.03;4883261;29;20204;-87
2023/10/10 09:58:46;;;;;;;9.60;5.50;;;;;;;20.49;100.00;99910.38;4894317;29;20207;-87
2023/10/10 10:01:24;;;;;;;11.80;6.13;;;;;;;20.76;100.00;99905.38;4913958;29;20208;-87
2023/10/10 10:04:00;;;;;;;11.23;6.03;;;;;;;20.86;100.00;99896.31;4897362;29;20202;-87
2023/10/10 10:06:50;;;;;;;9.03;5.07;;;;;;;21.00;100.00;99903.59;4898675;29;20216;-86
2023/10/10 10:09:45;;;;;;;11.07;5.30;;;;;;;21.23;100.00;99899.41;4916077;29;20279;-87
2023/10/10 10:12:33;;;;;;;10.40;4.77;;;;;;;21.06;100.00;99890.78;4907050;29;20220;-86
2023/10/10 10:15:28;;;;;;;9.17;4.83;;;;;;;20.65;100.00;99898.34;4911655;29;20227;-86
2023/10/10 10:18:13;;;;;;;9.37;4.73;;;;;;;20.67;100.00;99894.25;4896968;29;20223;-86
2023/10/10 10:23:26;;;;;;;10.27;5.33;;;;;;;20.75;100.00;99894.75;4904233;29;20213;-87
2023/10/10 10:26:08;;;;;;;11.17;5.00;;;;;;;20.54;100.00;99889.41;4908814;29;20213;-87
2023/10/10 10:28:43;;;;;;;9.77;5.30;;;;;;;20.48;100.00;99882.34;4908553;29;20224;-87
2023/10/10 10:31:28;;;;;;;10.47;5.30;;;;;;;20.50;100.00;99882.06;4900749;29;20230;-87
2023/10/10 10:34:07;;;;;;;10.87;5.30;;;;;;;20.57;100.00;99880.69;4910987;29;20275;-86
2023/10/10 10:36:44;;;;;;;8.93;5.07;;;;;;;20.76;100.00;99864.53;4903143;29;20205;-87
2023/10/10 10:39:25;;;;;;;10.23;5.57;;;;;;;20.83;100.00;99864.22;4886922;29;20219;-87
2023/10/10 10:41:54;;;;;;;12.03;5.80;;;;;;;20.98;100.00;99855.97;4888146;29;20579;-87
2023/10/10 10:47:34;;;;;;;9.97;5.23;;;;;;;20.83;100.00;99858.78;4917807;29;20220;-87
2023/10/10 10:50:32;;;;;;;9.43;5.10;;;;;;;20.58;100.00;99857.00;4921824;29;20255;-87
2023/10/10 10:53:34;;;;;;;8.27;5.00;;;;;;;20.80;100.00;99852.00;4906707;29;20205;-87
2023/10/10 10:56:37;;;;;;;12.30;5.23;;;;;;;20.96;100.00;99856.22;4889748;29;20211;-86
2023/10/10 10:59:12;;;;;;;11.20;5.33;;;;;;;20.73;100.00;99862.38;4912997;29;20205;-85
2023/10/10 11:01:57;;;;;;;12.40;5.30;;;;;;;20.78;100.00;99854.16;4903558;29;20198;-87
2023/10/10 11:07:08;;;;;;;10.27;5.22;;;;;;;20.96;100.00;99850.78;4887671;29;20208;-86
2023/10/10 11:09:38;;;;;;;12.73;5.60;;;;;;;21.08;100.00;99848.53;4875490;29;20227;-87
2023/10/10 11:12:08;;;;;;;8.65;5.00;;;;;;;21.32;100.00;99845.91;4911085;29;20216;-86
2023/10/10 11:14:49;;;;;;;9.13;5.07;;;;;;;21.70;100.00;99855.13;4904267;29;20219;-86
2023/10/10 11:17:20;;;;;;;8.93;5.13;;;;;;;21.85;100.00;99849.53;4920014;29;20298;-86
2023/10/10 11:19:57;;;;;;;8.63;4.78;;;;;;;21.94;100.00;99853.28;4936775;29;20708;-86
2023/10/10 11:22:41;;;;;;;9.00;5.30;;;;;;;21.99;100.00;99846.16;4905418;29;20286;-86
2023/10/10 11:25:11;;;;;;;10.68;5.55;;;;;;;21.97;100.00;99837.47;4931632;29;20194;-86
2023/10/10 11:27:43;;;;;;;11.68;5.35;;;;;;;22.01;100.00;99843.97;4902116;29;20679;-84
2023/10/10 11:30:19;;;;;;;10.63;5.65;;;;;;;22.19;100.00;99835.84;4906577;29;20199;-86
2023/10/10 11:32:47;;;;;;;8.75;5.63;;;;;;;22.36;100.00;99838.06;4894756;29;20245;-85
2023/10/10 11:35:23;;;;;;;10.55;5.80;;;;;;;22.38;100.00;99839.44;4921126;29;20694;-86
2023/10/10 11:38:05;;;;;;;10.68;6.00;;;;;;;22.52;100.00;99835.97;4939644;29;20248;-85
2023/10/10 11:40:52;;;;;;;11.98;5.85;;;;;;;22.72;100.00;99831.06;4919431;29;20205;-85
2023/10/10 11:43:22;;;;;;;10.98;6.03;;;;;;;22.82;100.00;99824.66;4918852;29;20217;-86
2023/10/10 11:45:53;;;;;;;11.25;5.93;;;;;;;22.95;100.00;99829.41;4919664;29;20590;-86
2023/10/10 11:48:26;;;;;;;10.55;5.82;;;;;;;23.01;100.00;99827.38;4905211;29;20200;-86
2023/10/10 11:50:56;;;;;;;13.80;5.68;;;;;;;23.15;100.00;99820.06;4921537;29;20205;-86
2023/10/10 11:53:28;;;;;;;11.23;6.10;;;;;;;23.24;100.00;99823.72;4921431;29;20206;-85
2023/10/10 11:56:11;;;;;;;11.20;5.88;;;;;;;23.33;100.00;99819.19;4898360;29;20258;-85
2023/10/10 11:58:39;;;;;;;11.70;6.25;;;;;;;23.43;100.00;99820.97;4896956;29;20221;-85
2023/10/10 12:01:06;;;;;;;10.48;5.82;;;;;;;23.45;100.00;99819.59;4903911;29;20202;-86
2023/10/10 12:06:14;;;;;;;9.43;5.63;;;;;;;23.52;100.00;99825.47;4955466;29;20215;-85
2023/10/10 12:08:50;;;;;;;9.27;5.75;;;;;;;23.59;100.00;99825.91;4929709;29;20243;-86
2023/10/10 12:11:22;;;;;;;10.60;5.82;;;;;;;23.50;100.00;99818.69;4923009;29;20213;-85
2023/10/10 12:13:54;;;;;;;9.55;5.65;;;;;;;23.43;100.00;99816.31;4919378;29;20213;-85
2023/10/10 12:16:27;;;;;;;11.68;7.35;;;;;;;23.34;100.00;99818.09;4943511;29;20271;-85
2023/10/10 12:18:55;;;;;;;10.10;5.75;;;;;;;23.27;100.00;99812.22;4902318;29;20300;-86
2023/10/10 12:21:31;;;;;;;12.63;6.35;;;;;;;23.41;100.00;99815.81;4946372;29;20717;-85
2023/10/10 12:24:06;;;;;;;9.63;5.82;;;;;;;23.58;100.00;99816.06;4934108;29;20228;-86
2023/10/10 12:26:39;;;;;;;12.15;5.82;;;;;;;23.63;100.00;99807.78;4935624;29;20240;-85
2023/10/10 12:29:10;;;;;;;9.52;5.65;;;;;;;23.61;100.00;99806.44;4918628;29;20244;-85
2023/10/10 12:31:47;;;;;;;9.85;5.65;;;;;;;23.49;100.00;99801.47;4915390;29;20205;-85
2023/10/10 12:34:25;;;;;;;8.88;5.93;;;;;;;23.46;100.00;99809.47;4915825;29;20237;-85
2023/10/10 12:37:04;;;;;;;9.93;5.97;;;;;;;23.26;100.00;99797.75;4915798;29;20207;-86
2023/10/10 12:39:38;;;;;;;9.40;5.75;;;;;;;23.11;100.00;99806.19;4930048;29;20196;-86
2023/10/10 12:42:07;;;;;;;12.48;5.70;;;;;;;22.96;100.00;99802.84;4899812;29;20207;-86
2023/10/10 12:44:34;;;;;;;9.13;5.50;;;;;;;22.95;100.00;99812.19;4911933;29;20255;-86
2023/10/10 12:47:06;;;;;;;11.50;6.03;;;;;;;22.82;100.00;99811.81;4881194;29;20218;-85
2023/10/10 12:49:44;;;;;;;8.40;5.65;;;;;;;22.71;100.00;99813.09;4908611;29;20199;-86
2023/10/10 12:52:12;;;;;;;11.43;5.50;;;;;;;22.72;100.00;99811.16;4902768;29;20214;-86
2023/10/10 12:54:46;;;;;;;10.02;5.90;;;;;;;22.74;100.00;99804.28;4895598;29;20313;-85
2023/10/10 12:57:16;;;;;;;9.23;5.30;;;;;;;22.77;100.00;99806.41;4905155;29;20300;-86
2023/10/10 12:59:46;;;;;;;12.93;5.65;;;;;;;22.74;100.00;99806.19;4918441;29;20262;-86
2023/10/10 13:02:17;;;;;;;10.65;5.68;;;;;;;22.60;100.00;99802.56;4897165;29;20683;-84
2023/10/10 13:04:48;;;;;;;9.82;5.30;;;;;;;22.43;100.00;99808.53;4896519;29;20207;-85
2023/10/10 13:07:37;;;;;;;10.00;4.90;;;;;;;22.13;100.00;99798.78;4908680;29;20214;-86
2023/10/10 13:10:13;;;;;;;7.30;4.50;;;;;;;22.07;100.00;99802.66;4931365;29;20230;-86
2023/10/10 13:12:54;;;;;;;9.07;4.60;;;;;;;21.92;100.00;99806.38;4916838;29;20289;-85
2023/10/10 13:15:30;;;;;;;10.10;4.75;;;;;;;21.76;100.00;99801.38;4915053;29;20300;-86
2023/10/10 13:20:50;;;;;;;5.03;3.83;;;;;;;21.72;100.00;99798.41;4915271;29;20202;-86
2023/10/10 13:23:18;;;;;;;8.07;3.78;;;;;;;21.61;100.00;99799.59;4884143;29;20241;-86
2023/10/10 13:25:49;;;;;;;7.30;4.45;;;;;;;21.36;100.00;99808.84;4896070;29;20219;-86
2023/10/10 13:28:21;;;;;;;7.50;4.05;;;;;;;21.31;100.00;99800.72;4896600;29;20215;-86
2023/10/10 13:30:48;;;;;;;8.38;4.20;;;;;;;21.28;100.00;99798.53;4913279;29;20733;-86
2023/10/10 13:33:16;;;;;;;6.82;4.13;;;;;;;21.29;100.00;99791.19;4915149;29;20249;-86
2023/10/10 13:35:45;;;;;;;6.45;3.72;;;;;;;21.19;100.00;99785.81;4914923;29;20230;-86
2023/10/10 13:38:12;;;;;;;8.13;4.20;;;;;;;21.18;100.00;99795.94;4915210;29;20229;-87
2023/10/10 13:40:45;;;;;;;7.10;3.85;;;;;;;21.23;100.00;99795.84;4888987;29;20199;-87
2023/10/10 13:43:18;;;;;;;7.80;4.00;;;;;;;21.19;100.00;99786.63;4866141;29;20298;-86
2023/10/10 13:45:48;;;;;;;7.65;4.63;;;;;;;20.97;100.00;99789.78;4889941;29;20643;-87
2023/10/10 13:48:23;;;;;;;7.10;3.95;;;;;;;20.94;100.00;99784.91;4902590;29;20202;-86
2023/10/10 13:50:57;;;;;;;7.05;4.32;;;;;;;20.83;100.00;99785.25;4899731;29;20213;-87
2023/10/10 13:53:26;;;;;;;6.65;4.82;;;;;;;20.73;100.00;99782.59;4915106;29;20213;-87
2023/10/10 13:56:00;;;;;;;6.20;4.22;;;;;;;20.60;100.00;99782.13;4915141;29;20233;-87
2023/10/10 13:58:33;;;;;;;8.32;4.70;;;;;;;20.54;100.00;99779.72;4930884;29;20230;-87
2023/10/10 14:04:26;;;;;;;7.78;4.47;;;;;;;20.17;100.00;99775.53;4891249;29;20214;-87
2023/10/10 14:07:00;;;;;;;7.80;4.68;;;;;;;20.02;100.00;99777.47;4879307;29;20232;-86
2023/10/10 14:09:31;;;;;;;6.47;4.40;;;;;;;19.82;100.00;99772.94;4903665;29;20241;-86
2023/10/10 14:12:06;;;;;;;9.30;4.45;;;;;;;19.82;100.00;99772.94;4879771;29;20282;-87
2023/10/10 14:14:36;;;;;;;8.40;4.75;;;;;;;19.72;100.00;99775.69;4889860;29;21382;-87
2023/10/10 14:17:09;;;;;;;8.37;4.40;;;;;;;19.79;100.00;99778.91;4889488;29;20195;-87
2023/10/10 14:19:41;;;;;;;9.30;4.90;;;;;;;19.76;100.00;99782.19;4883670;29;20578;-87
2023/10/10 14:22:10;;;;;;;7.93;4.47;;;;;;;19.67;100.00;99778.41;4891535;29;20217;-87
2023/10/10 14:24:39;;;;;;;9.20;4.03;;;;;;;19.70;100.00;99775.94;4903546;29;20197;-87
2023/10/10 14:27:07;;;;;;;7.65;4.50;;;;;;;19.71;100.00;99779.50;4872169;29;20210;-87
2023/10/10 14:29:43;;;;;;;7.90;3.95;;;;;;;19.73;100.00;99774.59;4882332;29;20206;-87
2023/10/10 14:32:12;;;;;;;7.67;4.00;;;;;;;19.76;100.00;99772.16;4880274;29;20217;-87
2023/10/10 14:35:08;;;;;;;8.10;4.07;;;;;;;19.75;100.00;99786.81;4901789;29;20327;-87
2023/10/10 14:37:36;;;;;;;6.10;3.97;;;;;;;19.61;100.00;99790.38;4921339;29;20287;-87
2023/10/10 14:40:24;;;;;;;7.32;3.75;;;;;;;19.61;100.00;99788.47;4916072;29;20202;-87
2023/10/10 14:42:53;;;;;;;8.63;4.00;;;;;;;19.64;100.00;99792.56;4890876;29;20300;-87
2023/10/10 14:45:28;;;;;;;8.50;4.30;;;;;;;19.74;100.00;99793.34;4899623;29;20212;-87
2023/10/10 14:48:06;;;;;;;7.57;4.05;;;;;;;19.81;100.00;99790.34;4913911;29;20194;-87
2023/10/10 14:50:38;;;;;;;7.30;4.57;;;;;;;19.90;100.00;99790.59;4938052;29;20249;-87
2023/10/10 14:53:10;;;;;;;6.07;4.30;;;;;;;20.01;100.00;99797.63;4920632;29;20208;-86
2023/10/10 14:55:44;;;;;;;9.85;4.65;;;;;;;20.00;100.00;99788.66;4935949;29;20252;-87
2023/10/10 14:58:14;;;;;;;5.87;4.40;;;;;;;19.99;100.00;99783.47;4906338;29;20680;-86
2023/10/10 15:00:48;;;;;;;7.87;4.40;;;;;;;19.95;100.00;99794.09;4915604;29;20292;-87
2023/10/10 15:03:23;;;;;;;7.30;4.72;;;;;;;20.01;100.00;99793.00;4936409;29;20200;-87
2023/10/10 15:05:55;;;;;;;7.90;4.53;;;;;;;20.07;100.00;99802.75;4910190;29;20236;-87
2023/10/10 15:08:31;;;;;;;8.93;4.63;;;;;;;20.09;100.00;99799.78;4938587;29;20230;-87
2023/10/10 15:11:08;;;;;;;10.15;4.88;;;;;;;19.94;100.00;99799.81;4909748;29;20207;-87
2023/10/10 15:13:40;;;;;;;11.53;5.00;;;;;;;19.96;100.00;99803.91;4924529;29;20320;-87
2023/10/10 15:16:10;;;;;;;7.38;4.78;;;;;;;19.95;100.00;99798.72;4909704;29;20255;-87
2023/10/10 15:18:38;;;;;;;7.33;4.40;;;;;;;19.89;100.00;99802.53;4908142;29;20216;-87
2023/10/10 15:21:12;;;;;;;8.77;4.95;;;;;;;19.76;100.00;99795.78;4914147;29;20199;-87
2023/10/10 15:23:46;;;;;;;5.87;4.60;;;;;;;19.67;100.00;99800.16;4906419;29;20276;-87
2023/10/10 15:26:21;;;;;;;8.32;4.90;;;;;;;19.54;100.00;99804.25;4887641;29;20208;-87
2023/10/10 15:28:53;;;;;;;8.63;4.47;;;;;;;19.46;100.00;99807.50;4931988;29;20224;-87
2023/10/10 15:31:29;;;;;;;7.38;4.32;;;;;;;19.41;100.00;99803.97;4940889;29;20203;-87
2023/10/10 15:33:58;;;;;;;8.63;5.23;;;;;;;19.30;100.00;99805.88;4880069;29;20237;-87
2023/10/10 15:36:30;;;;;;;6.60;4.50;;;;;;;19.22;100.00;99806.44;4897478;29;20244;-87
2023/10/10 15:39:05;;;;;;;8.90;5.43;;;;;;;19.22;100.00;99806.44;4897737;29;20205;-87
2023/10/10 15:41:37;;;;;;;8.70;4.70;;;;;;;19.12;100.00;99806.44;4883053;29;20220;-87
2023/10/10 15:44:15;;;;;;;8.37;4.73;;;;;;;19.06;100.00;99802.88;4872363;29;20208;-87
2023/10/10 15:46:46;;;;;;;10.03;4.83;;;;;;;18.97;100.00;99800.97;4898631;29;20218;-87
2023/10/10 15:49:17;;;;;;;10.70;5.53;;;;;;;18.86;100.00;99800.16;4882817;29;20198;-88
2023/10/10 15:52:04;;;;;;;9.70;5.83;;;;;;;18.78;100.00;99800.69;4888015;29;20268;-87
2023/10/10 15:54:35;;;;;;;12.33;6.13;;;;;;;18.73;100.00;99806.91;4910582;29;20206;-87
2023/10/10 15:57:08;;;;;;;14.50;7.67;;;;;;;18.70;100.00;99806.66;4892958;29;20218;-87
2023/10/10 15:59:41;;;;;;;14.10;8.87;;;;;;;18.68;100.00;99803.38;4905705;29;20261;-87
2023/10/10 16:02:13;;;;;;;11.67;8.03;;;;;;;18.63;100.00;99806.88;4890510;29;20646;-88
2023/10/10 16:04:44;;;;;;;14.20;8.77;;;;;;;18.55;100.00;99815.56;4890776;29;20273;-87
2023/10/10 16:07:15;;;;;;;14.00;8.37;;;;;;;18.50;100.00;99820.94;4898765;29;20213;-88
2023/10/10 16:09:44;;;;;;;12.60;8.67;;;;;;;18.39;100.00;99820.06;4890452;29;20233;-88
2023/10/10 16:12:12;;;;;;;11.73;7.70;;;;;;;18.32;100.00;99824.13;4879880;29;20244;-88
2023/10/10 16:14:41;;;;;;;11.97;7.83;;;;;;;18.24;100.00;99830.06;4899923;29;20209;-88
2023/10/10 16:17:15;;;;;;;12.67;8.03;;;;;;;18.15;100.00;99823.53;4904090;29;20213;-87
2023/10/10 16:19:44;;;;;;;9.50;6.13;;;;;;;18.08;100.00;99828.34;4883458;29;20294;-88
2023/10/10 16:22:13;;;;;;;10.63;5.90;;;;;;;18.03;100.00;99831.84;4863723;29;20754;-88
2023/10/10 16:24:52;;;;;;;9.37;5.87;;;;;;;17.96;100.00;99834.00;4915008;29;20746;-87
2023/10/10 16:27:22;;;;;;;8.13;5.50;;;;;;;17.88;100.00;99829.06;4882775;29;20214;-88
2023/10/10 16:29:58;;;;;;;9.47;5.70;;;;;;;17.82;100.00;99838.25;4900042;29;20197;-88
2023/10/10 16:32:27;;;;;;;10.13;5.90;;;;;;;17.75;100.00;99822.22;4905774;29;20269;-88
2023/10/10 16:35:01;;;;;;;7.23;5.07;;;;;;;17.70;100.00;99838.44;4916411;29;20226;-87
2023/10/10 16:37:31;;;;;;;7.37;5.43;;;;;;;17.63;100.00;99834.34;4902693;29;20202;-88
2023/10/10 16:39:58;;;;;;;8.43;4.93;;;;;;;17.57;100.00;99839.69;4894406;29;20194;-88
2023/10/10 16:42:35;;;;;;;12.17;6.53;;;;;;;17.45;100.00;99841.75;4892467;29;20210;-88
2023/10/10 16:45:10;;;;;;;9.93;5.97;;;;;;;17.37;100.00;99844.94;4903633;29;20679;-88
2023/10/10 16:47:41;;;;;;;6.97;5.53;;;;;;;17.31;100.00;99854.09;4900517;29;20215;-88
2023/10/10 16:50:10;;;;;;;9.77;5.20;;;;;;;17.22;100.00;99857.53;4877274;29;20213;-88
2023/10/10 16:52:37;;;;;;;9.47;6.53;;;;;;;17.10;100.00;99858.50;4884632;29;20213;-87
2023/10/10 16:55:10;;;;;;;9.20;6.67;;;;;;;16.95;100.00;99861.06;4866845;29;20333;-88
2023/10/10 16:57:38;;;;;;;9.00;5.60;;;;;;;16.78;100.00;99859.53;4873051;29;20209;-88
2023/10/10 17:00:11;;;;;;;9.43;5.87;;;;;;;16.66;100.00;99868.59;4903273;29;20680;-88
2023/10/10 17:02:44;;;;;;;7.63;4.97;;;;;;;16.61;100.00;99873.16;4897163;29;20228;-88
2023/10/10 17:05:11;;;;;;;9.27;5.23;;;;;;;16.55;100.00;99872.25;4895515;29;20224;-88